sensor_id;sensor_type;location;lat;lon;timestamp;P1;durP1;ratioP1;P2;durP2;ratioP2
56291;SDS011;54008;53.606;9.462;2022-11-28T00:01:25;21.27;;;11.85;;
56291;SDS011;54008;53.606;9.462;2022-11-28T00:03:58;21.05;;;10.07;;
56291;SDS011;54008;53.606;9.462;2022-11-28T00:06:23;26.27;;;10.50;;
56291;SDS011;54008;53.606;9.462;2022-11-28T00:08:50;25.17;;;12.00;;
56291;SDS011;54008;53.606;9.462;2022-11-28T00:11:15;22.48;;;10.27;;
56291;SDS011;54008;53.606;9.462;2022-11-28T00:13:41;20.42;;;10.85;;
56291;SDS011;54008;53.606;9.462;2022-11-28T00:16:07;21.08;;;10.98;;
56291;SDS011;54008;53.606;9.462;2022-11-28T00:18:36;26.88;;;11.10;;
56291;SDS011;54008;53.606;9.462;2022-11-28T00:21:05;24.02;;;11.07;;
56291;SDS011;54008;53.606;9.462;2022-11-28T00:23:33;23.48;;;11.00;;
56291;SDS011;54008;53.606;9.462;2022-11-28T00:25:59;24.75;;;10.70;;
56291;SDS011;54008;53.606;9.462;2022-11-28T00:28:28;23.45;;;10.93;;
56291;SDS011;54008;53.606;9.462;2022-11-28T00:30:53;23.35;;;9.95;;
56291;SDS011;54008;53.606;9.462;2022-11-28T00:33:19;24.95;;;11.20;;
56291;SDS011;54008;53.606;9.462;2022-11-28T00:35:44;20.80;;;10.60;;
56291;SDS011;54008;53.606;9.462;2022-11-28T00:38:09;22.30;;;10.98;;
56291;SDS011;54008;53.606;9.462;2022-11-28T00:40:34;20.30;;;10.18;;
56291;SDS011;54008;53.606;9.462;2022-11-28T00:43:00;22.25;;;10.88;;
56291;SDS011;54008;53.606;9.462;2022-11-28T00:45:25;21.20;;;11.32;;
56291;SDS011;54008;53.606;9.462;2022-11-28T00:47:50;21.95;;;10.60;;
56291;SDS011;54008;53.606;9.462;2022-11-28T00:50:16;22.67;;;11.20;;
56291;SDS011;54008;53.606;9.462;2022-11-28T00:52:41;24.95;;;10.50;;
56291;SDS011;54008;53.606;9.462;2022-11-28T00:55:07;24.30;;;11.93;;
56291;SDS011;54008;53.606;9.462;2022-11-28T00:57:32;25.80;;;11.77;;
56291;SDS011;54008;53.606;9.462;2022-11-28T00:59:58;19.20;;;10.07;;
56291;SDS011;54008;53.606;9.462;2022-11-28T01:02:23;25.95;;;11.95;;
56291;SDS011;54008;53.606;9.462;2022-11-28T01:04:49;20.50;;;11.50;;
56291;SDS011;54008;53.606;9.462;2022-11-28T01:07:14;22.38;;;10.70;;
56291;SDS011;54008;53.606;9.462;2022-11-28T01:09:39;27.95;;;12.07;;
56291;SDS011;54008;53.606;9.462;2022-11-28T01:12:05;28.90;;;11.75;;
56291;SDS011;54008;53.606;9.462;2022-11-28T01:14:30;24.88;;;11.45;;
56291;SDS011;54008;53.606;9.462;2022-11-28T01:16:55;24.83;;;11.88;;
56291;SDS011;54008;53.606;9.462;2022-11-28T01:19:21;22.77;;;11.88;;
56291;SDS011;54008;53.606;9.462;2022-11-28T01:21:46;21.73;;;11.32;;
56291;SDS011;54008;53.606;9.462;2022-11-28T01:24:12;22.83;;;11.70;;
56291;SDS011;54008;53.606;9.462;2022-11-28T01:26:38;25.80;;;12.10;;
56291;SDS011;54008;53.606;9.462;2022-11-28T01:29:04;22.33;;;10.45;;
56291;SDS011;54008;53.606;9.462;2022-11-28T01:31:30;24.02;;;12.45;;
56291;SDS011;54008;53.606;9.462;2022-11-28T01:33:56;24.70;;;11.95;;
56291;SDS011;54008;53.606;9.462;2022-11-28T01:36:21;19.73;;;11.25;;
56291;SDS011;54008;53.606;9.462;2022-11-28T01:38:47;24.52;;;11.70;;
56291;SDS011;54008;53.606;9.462;2022-11-28T01:41:14;22.95;;;11.02;;
56291;SDS011;54008;53.606;9.462;2022-11-28T01:46:28;23.45;;;10.45;;
56291;SDS011;54008;53.606;9.462;2022-11-28T01:48:55;22.38;;;10.23;;
56291;SDS011;54008;53.606;9.462;2022-11-28T01:51:25;27.08;;;11.07;;
56291;SDS011;54008;53.606;9.462;2022-11-28T01:53:51;19.98;;;11.38;;
56291;SDS011;54008;53.606;9.462;2022-11-28T01:56:27;22.35;;;11.27;;
56291;SDS011;54008;53.606;9.462;2022-11-28T01:59:00;25.33;;;10.68;;
56291;SDS011;54008;53.606;9.462;2022-11-28T02:01:28;22.70;;;10.32;;
56291;SDS011;54008;53.606;9.462;2022-11-28T02:03:53;22.48;;;11.27;;
56291;SDS011;54008;53.606;9.462;2022-11-28T02:06:21;19.08;;;10.15;;
56291;SDS011;54008;53.606;9.462;2022-11-28T02:08:51;24.48;;;9.95;;
56291;SDS011;54008;53.606;9.462;2022-11-28T02:11:28;17.95;;;9.75;;
56291;SDS011;54008;53.606;9.462;2022-11-28T02:40:41;15.93;;;9.60;;
56291;SDS011;54008;53.606;9.462;2022-11-28T02:51:05;19.15;;;10.00;;
56291;SDS011;54008;53.606;9.462;2022-11-28T02:53:36;18.95;;;9.57;;
56291;SDS011;54008;53.606;9.462;2022-11-28T02:56:03;17.50;;;9.38;;
56291;SDS011;54008;53.606;9.462;2022-11-28T02:58:28;17.65;;;8.55;;
56291;SDS011;54008;53.606;9.462;2022-11-28T03:00:54;20.48;;;9.63;;
56291;SDS011;54008;53.606;9.462;2022-11-28T03:03:37;21.50;;;10.25;;
56291;SDS011;54008;53.606;9.462;2022-11-28T03:09:22;22.55;;;10.43;;
56291;SDS011;54008;53.606;9.462;2022-11-28T03:11:57;17.15;;;9.07;;
56291;SDS011;54008;53.606;9.462;2022-11-28T03:14:54;18.65;;;8.85;;
56291;SDS011;54008;53.606;9.462;2022-11-28T03:25:22;18.77;;;8.25;;
56291;SDS011;54008;53.606;9.462;2022-11-28T03:27:59;19.33;;;9.45;;
56291;SDS011;54008;53.606;9.462;2022-11-28T03:30:36;16.58;;;8.13;;
56291;SDS011;54008;53.606;9.462;2022-11-28T03:33:07;14.82;;;8.35;;
56291;SDS011;54008;53.606;9.462;2022-11-28T03:35:35;14.48;;;8.88;;
56291;SDS011;54008;53.606;9.462;2022-11-28T03:38:08;17.90;;;9.68;;
56291;SDS011;54008;53.606;9.462;2022-11-28T03:40:42;15.30;;;7.63;;
56291;SDS011;54008;53.606;9.462;2022-11-28T03:43:13;17.30;;;8.55;;
56291;SDS011;54008;53.606;9.462;2022-11-28T03:45:43;15.55;;;8.48;;
56291;SDS011;54008;53.606;9.462;2022-11-28T03:48:18;17.50;;;8.93;;
56291;SDS011;54008;53.606;9.462;2022-11-28T03:50:55;17.65;;;9.18;;
56291;SDS011;54008;53.606;9.462;2022-11-28T03:53:29;17.42;;;7.88;;
56291;SDS011;54008;53.606;9.462;2022-11-28T03:59:02;15.48;;;8.38;;
56291;SDS011;54008;53.606;9.462;2022-11-28T04:02:00;20.52;;;10.65;;
56291;SDS011;54008;53.606;9.462;2022-11-28T04:04:50;16.42;;;8.80;;
56291;SDS011;54008;53.606;9.462;2022-11-28T04:07:21;17.35;;;8.02;;
56291;SDS011;54008;53.606;9.462;2022-11-28T04:12:49;15.32;;;8.00;;
56291;SDS011;54008;53.606;9.462;2022-11-28T04:18:15;17.63;;;8.63;;
56291;SDS011;54008;53.606;9.462;2022-11-28T04:20:42;14.82;;;8.07;;
56291;SDS011;54008;53.606;9.462;2022-11-28T04:23:14;17.88;;;8.38;;
56291;SDS011;54008;53.606;9.462;2022-11-28T04:25:44;16.60;;;8.07;;
56291;SDS011;54008;53.606;9.462;2022-11-28T04:28:16;13.85;;;7.80;;
56291;SDS011;54008;53.606;9.462;2022-11-28T04:30:45;13.35;;;7.57;;
56291;SDS011;54008;53.606;9.462;2022-11-28T04:33:14;14.68;;;6.55;;
56291;SDS011;54008;53.606;9.462;2022-11-28T04:35:44;13.48;;;7.57;;
56291;SDS011;54008;53.606;9.462;2022-11-28T04:38:14;16.05;;;7.97;;
56291;SDS011;54008;53.606;9.462;2022-11-28T04:40:42;15.98;;;7.80;;
56291;SDS011;54008;53.606;9.462;2022-11-28T04:43:15;18.15;;;9.27;;
56291;SDS011;54008;53.606;9.462;2022-11-28T04:45:46;16.08;;;8.77;;
56291;SDS011;54008;53.606;9.462;2022-11-28T04:48:15;13.70;;;7.15;;
56291;SDS011;54008;53.606;9.462;2022-11-28T04:50:49;17.77;;;7.70;;
56291;SDS011;54008;53.606;9.462;2022-11-28T04:56:24;11.40;;;7.15;;
56291;SDS011;54008;53.606;9.462;2022-11-28T04:59:05;14.30;;;7.78;;
56291;SDS011;54008;53.606;9.462;2022-11-28T05:01:31;15.02;;;7.75;;
56291;SDS011;54008;53.606;9.462;2022-11-28T05:03:58;17.30;;;7.40;;
56291;SDS011;54008;53.606;9.462;2022-11-28T05:06:25;16.80;;;7.82;;
56291;SDS011;54008;53.606;9.462;2022-11-28T05:08:52;12.73;;;8.02;;
56291;SDS011;54008;53.606;9.462;2022-11-28T05:11:18;14.25;;;7.68;;
56291;SDS011;54008;53.606;9.462;2022-11-28T05:13:44;12.10;;;7.13;;
56291;SDS011;54008;53.606;9.462;2022-11-28T05:16:10;13.48;;;7.25;;
56291;SDS011;54008;53.606;9.462;2022-11-28T05:18:37;13.65;;;7.47;;
56291;SDS011;54008;53.606;9.462;2022-11-28T05:21:02;18.00;;;7.75;;
56291;SDS011;54008;53.606;9.462;2022-11-28T05:23:30;12.27;;;6.78;;
56291;SDS011;54008;53.606;9.462;2022-11-28T05:25:55;17.13;;;7.72;;
56291;SDS011;54008;53.606;9.462;2022-11-28T05:28:21;12.65;;;7.25;;
56291;SDS011;54008;53.606;9.462;2022-11-28T05:30:55;12.77;;;6.45;;
56291;SDS011;54008;53.606;9.462;2022-11-28T05:33:22;13.52;;;7.13;;
56291;SDS011;54008;53.606;9.462;2022-11-28T05:35:47;13.70;;;7.25;;
56291;SDS011;54008;53.606;9.462;2022-11-28T05:38:12;20.05;;;7.07;;
56291;SDS011;54008;53.606;9.462;2022-11-28T05:40:37;13.70;;;6.57;;
56291;SDS011;54008;53.606;9.462;2022-11-28T05:43:08;15.80;;;7.50;;
56291;SDS011;54008;53.606;9.462;2022-11-28T05:45:33;15.68;;;6.40;;
56291;SDS011;54008;53.606;9.462;2022-11-28T05:47:58;15.32;;;7.13;;
56291;SDS011;54008;53.606;9.462;2022-11-28T05:50:23;15.55;;;7.03;;
56291;SDS011;54008;53.606;9.462;2022-11-28T05:52:49;14.65;;;7.10;;
56291;SDS011;54008;53.606;9.462;2022-11-28T05:55:14;12.40;;;6.82;;
56291;SDS011;54008;53.606;9.462;2022-11-28T05:57:39;11.60;;;6.75;;
56291;SDS011;54008;53.606;9.462;2022-11-28T06:00:05;14.55;;;7.47;;
56291;SDS011;54008;53.606;9.462;2022-11-28T06:02:31;16.23;;;7.53;;
56291;SDS011;54008;53.606;9.462;2022-11-28T06:04:59;14.93;;;7.03;;
56291;SDS011;54008;53.606;9.462;2022-11-28T06:07:24;11.95;;;6.82;;
56291;SDS011;54008;53.606;9.462;2022-11-28T06:09:50;12.52;;;6.80;;
56291;SDS011;54008;53.606;9.462;2022-11-28T06:12:15;15.90;;;7.15;;
56291;SDS011;54008;53.606;9.462;2022-11-28T06:14:40;15.25;;;7.75;;
56291;SDS011;54008;53.606;9.462;2022-11-28T06:17:06;15.93;;;6.72;;
56291;SDS011;54008;53.606;9.462;2022-11-28T06:19:31;13.93;;;6.72;;
56291;SDS011;54008;53.606;9.462;2022-11-28T06:21:56;15.52;;;7.22;;
56291;SDS011;54008;53.606;9.462;2022-11-28T06:24:22;12.68;;;7.00;;
56291;SDS011;54008;53.606;9.462;2022-11-28T06:26:47;12.55;;;6.63;;
56291;SDS011;54008;53.606;9.462;2022-11-28T06:29:12;13.00;;;6.88;;
56291;SDS011;54008;53.606;9.462;2022-11-28T06:31:37;12.75;;;6.80;;
56291;SDS011;54008;53.606;9.462;2022-11-28T06:34:03;16.88;;;7.25;;
56291;SDS011;54008;53.606;9.462;2022-11-28T06:36:28;13.90;;;7.32;;
56291;SDS011;54008;53.606;9.462;2022-11-28T06:38:54;12.07;;;6.35;;
56291;SDS011;54008;53.606;9.462;2022-11-28T06:41:20;14.90;;;7.13;;
56291;SDS011;54008;53.606;9.462;2022-11-28T06:43:47;13.95;;;7.30;;
56291;SDS011;54008;53.606;9.462;2022-11-28T06:46:13;13.77;;;6.80;;
56291;SDS011;54008;53.606;9.462;2022-11-28T06:48:40;13.93;;;6.68;;
56291;SDS011;54008;53.606;9.462;2022-11-28T06:51:06;14.57;;;7.20;;
56291;SDS011;54008;53.606;9.462;2022-11-28T06:53:32;17.20;;;7.47;;
56291;SDS011;54008;53.606;9.462;2022-11-28T06:56:05;14.15;;;7.15;;
56291;SDS011;54008;53.606;9.462;2022-11-28T06:58:31;15.60;;;7.70;;
56291;SDS011;54008;53.606;9.462;2022-11-28T07:01:03;15.20;;;6.78;;
56291;SDS011;54008;53.606;9.462;2022-11-28T07:03:39;15.60;;;7.32;;
56291;SDS011;54008;53.606;9.462;2022-11-28T07:06:05;11.93;;;6.93;;
56291;SDS011;54008;53.606;9.462;2022-11-28T07:08:32;17.77;;;8.48;;
56291;SDS011;54008;53.606;9.462;2022-11-28T07:11:05;14.00;;;7.78;;
56291;SDS011;54008;53.606;9.462;2022-11-28T07:13:32;12.20;;;6.32;;
56291;SDS011;54008;53.606;9.462;2022-11-28T07:15:57;14.73;;;7.38;;
56291;SDS011;54008;53.606;9.462;2022-11-28T07:18:22;12.05;;;6.93;;
56291;SDS011;54008;53.606;9.462;2022-11-28T07:20:48;13.05;;;8.07;;
56291;SDS011;54008;53.606;9.462;2022-11-28T07:23:14;17.75;;;7.75;;
56291;SDS011;54008;53.606;9.462;2022-11-28T07:25:39;13.48;;;7.07;;
56291;SDS011;54008;53.606;9.462;2022-11-28T07:28:04;15.18;;;7.68;;
56291;SDS011;54008;53.606;9.462;2022-11-28T07:30:30;14.63;;;7.45;;
56291;SDS011;54008;53.606;9.462;2022-11-28T07:32:55;11.55;;;6.80;;
56291;SDS011;54008;53.606;9.462;2022-11-28T07:35:20;12.85;;;7.53;;
56291;SDS011;54008;53.606;9.462;2022-11-28T07:37:45;13.27;;;7.30;;
56291;SDS011;54008;53.606;9.462;2022-11-28T07:40:11;15.90;;;7.60;;
56291;SDS011;54008;53.606;9.462;2022-11-28T07:42:37;13.00;;;7.45;;
56291;SDS011;54008;53.606;9.462;2022-11-28T07:45:03;14.77;;;8.10;;
56291;SDS011;54008;53.606;9.462;2022-11-28T07:47:29;14.02;;;7.50;;
56291;SDS011;54008;53.606;9.462;2022-11-28T07:49:55;17.80;;;8.23;;
56291;SDS011;54008;53.606;9.462;2022-11-28T07:52:20;16.10;;;7.63;;
56291;SDS011;54008;53.606;9.462;2022-11-28T07:54:47;18.67;;;8.20;;
56291;SDS011;54008;53.606;9.462;2022-11-28T07:57:13;16.83;;;7.75;;
56291;SDS011;54008;53.606;9.462;2022-11-28T07:59:38;16.33;;;8.40;;
56291;SDS011;54008;53.606;9.462;2022-11-28T08:02:04;15.65;;;9.18;;
56291;SDS011;54008;53.606;9.462;2022-11-28T08:04:29;17.90;;;9.65;;
56291;SDS011;54008;53.606;9.462;2022-11-28T08:06:55;14.98;;;8.02;;
56291;SDS011;54008;53.606;9.462;2022-11-28T08:09:21;15.90;;;8.10;;
56291;SDS011;54008;53.606;9.462;2022-11-28T08:11:47;18.20;;;8.63;;
56291;SDS011;54008;53.606;9.462;2022-11-28T08:14:16;20.40;;;9.55;;
56291;SDS011;54008;53.606;9.462;2022-11-28T08:16:42;17.95;;;8.93;;
56291;SDS011;54008;53.606;9.462;2022-11-28T08:19:09;18.50;;;9.18;;
56291;SDS011;54008;53.606;9.462;2022-11-28T08:21:35;15.90;;;8.23;;
56291;SDS011;54008;53.606;9.462;2022-11-28T08:24:01;17.33;;;9.15;;
56291;SDS011;54008;53.606;9.462;2022-11-28T08:26:28;17.60;;;9.32;;
56291;SDS011;54008;53.606;9.462;2022-11-28T08:28:54;16.80;;;8.57;;
56291;SDS011;54008;53.606;9.462;2022-11-28T08:31:21;17.90;;;8.45;;
56291;SDS011;54008;53.606;9.462;2022-11-28T08:33:49;18.17;;;9.43;;
56291;SDS011;54008;53.606;9.462;2022-11-28T08:36:16;20.73;;;9.55;;
56291;SDS011;54008;53.606;9.462;2022-11-28T08:38:44;17.38;;;8.95;;
56291;SDS011;54008;53.606;9.462;2022-11-28T08:41:11;16.70;;;9.45;;
56291;SDS011;54008;53.606;9.462;2022-11-28T08:43:38;20.48;;;8.32;;
56291;SDS011;54008;53.606;9.462;2022-11-28T08:46:05;16.83;;;9.68;;
56291;SDS011;54008;53.606;9.462;2022-11-28T08:48:33;18.58;;;9.48;;
56291;SDS011;54008;53.606;9.462;2022-11-28T08:50:59;18.60;;;9.73;;
56291;SDS011;54008;53.606;9.462;2022-11-28T08:53:24;21.88;;;9.80;;
56291;SDS011;54008;53.606;9.462;2022-11-28T08:55:50;18.45;;;9.60;;
56291;SDS011;54008;53.606;9.462;2022-11-28T08:58:15;18.85;;;10.38;;
56291;SDS011;54008;53.606;9.462;2022-11-28T09:00:40;21.52;;;10.52;;
56291;SDS011;54008;53.606;9.462;2022-11-28T09:03:06;17.60;;;10.05;;
56291;SDS011;54008;53.606;9.462;2022-11-28T09:05:31;20.75;;;10.13;;
56291;SDS011;54008;53.606;9.462;2022-11-28T09:07:57;20.13;;;9.20;;
56291;SDS011;54008;53.606;9.462;2022-11-28T09:10:22;17.20;;;10.10;;
56291;SDS011;54008;53.606;9.462;2022-11-28T09:12:49;17.73;;;9.60;;
56291;SDS011;54008;53.606;9.462;2022-11-28T09:15:15;22.33;;;11.32;;
56291;SDS011;54008;53.606;9.462;2022-11-28T09:17:40;21.67;;;10.75;;
56291;SDS011;54008;53.606;9.462;2022-11-28T09:20:05;19.80;;;10.25;;
56291;SDS011;54008;53.606;9.462;2022-11-28T09:22:31;20.92;;;9.80;;
56291;SDS011;54008;53.606;9.462;2022-11-28T09:24:57;21.58;;;10.30;;
56291;SDS011;54008;53.606;9.462;2022-11-28T09:27:22;20.92;;;9.93;;
56291;SDS011;54008;53.606;9.462;2022-11-28T09:29:48;21.15;;;10.93;;
56291;SDS011;54008;53.606;9.462;2022-11-28T09:32:13;22.50;;;9.98;;
56291;SDS011;54008;53.606;9.462;2022-11-28T09:34:38;17.30;;;10.15;;
56291;SDS011;54008;53.606;9.462;2022-11-28T09:37:03;19.52;;;8.93;;
56291;SDS011;54008;53.606;9.462;2022-11-28T09:39:29;17.05;;;9.75;;
56291;SDS011;54008;53.606;9.462;2022-11-28T09:42:16;21.55;;;11.00;;
56291;SDS011;54008;53.606;9.462;2022-11-28T09:44:55;19.33;;;10.20;;
56291;SDS011;54008;53.606;9.462;2022-11-28T09:47:25;20.25;;;10.55;;
56291;SDS011;54008;53.606;9.462;2022-11-28T09:49:54;18.63;;;10.18;;
56291;SDS011;54008;53.606;9.462;2022-11-28T09:52:25;19.27;;;9.88;;
56291;SDS011;54008;53.606;9.462;2022-11-28T09:54:59;20.95;;;10.68;;
56291;SDS011;54008;53.606;9.462;2022-11-28T09:57:35;20.88;;;11.55;;
56291;SDS011;54008;53.606;9.462;2022-11-28T10:00:04;22.73;;;9.70;;
56291;SDS011;54008;53.606;9.462;2022-11-28T10:16:19;24.17;;;10.35;;
56291;SDS011;54008;53.606;9.462;2022-11-28T10:19:14;24.30;;;10.20;;
56291;SDS011;54008;53.606;9.462;2022-11-28T10:21:47;20.58;;;10.35;;
56291;SDS011;54008;53.606;9.462;2022-11-28T10:24:18;23.85;;;11.05;;
56291;SDS011;54008;53.606;9.462;2022-11-28T10:26:48;21.73;;;11.13;;
56291;SDS011;54008;53.606;9.462;2022-11-28T10:29:23;19.63;;;10.77;;
56291;SDS011;54008;53.606;9.462;2022-11-28T10:31:54;25.50;;;10.43;;
56291;SDS011;54008;53.606;9.462;2022-11-28T10:39:53;20.13;;;11.02;;
56291;SDS011;54008;53.606;9.462;2022-11-28T10:42:38;21.50;;;10.13;;
56291;SDS011;54008;53.606;9.462;2022-11-28T10:56:23;21.58;;;10.65;;
56291;SDS011;54008;53.606;9.462;2022-11-28T10:58:57;20.92;;;11.02;;
56291;SDS011;54008;53.606;9.462;2022-11-28T11:01:39;21.15;;;11.02;;
56291;SDS011;54008;53.606;9.462;2022-11-28T11:04:07;27.45;;;11.77;;
56291;SDS011;54008;53.606;9.462;2022-11-28T11:06:58;23.10;;;10.48;;
56291;SDS011;54008;53.606;9.462;2022-11-28T11:09:29;22.20;;;11.50;;
56291;SDS011;54008;53.606;9.462;2022-11-28T11:11:57;23.83;;;12.30;;
56291;SDS011;54008;53.606;9.462;2022-11-28T11:14:37;21.05;;;11.73;;
56291;SDS011;54008;53.606;9.462;2022-11-28T11:17:08;23.58;;;11.48;;
56291;SDS011;54008;53.606;9.462;2022-11-28T11:19:48;21.35;;;10.65;;
56291;SDS011;54008;53.606;9.462;2022-11-28T11:22:15;21.70;;;10.30;;
56291;SDS011;54008;53.606;9.462;2022-11-28T11:27:30;24.33;;;11.23;;
56291;SDS011;54008;53.606;9.462;2022-11-28T11:29:57;22.45;;;11.73;;
56291;SDS011;54008;53.606;9.462;2022-11-28T11:32:27;24.95;;;11.95;;
56291;SDS011;54008;53.606;9.462;2022-11-28T11:34:54;25.10;;;12.25;;
56291;SDS011;54008;53.606;9.462;2022-11-28T11:37:30;21.33;;;11.52;;
56291;SDS011;54008;53.606;9.462;2022-11-28T11:42:49;24.63;;;12.40;;
56291;SDS011;54008;53.606;9.462;2022-11-28T11:45:28;23.48;;;11.10;;
56291;SDS011;54008;53.606;9.462;2022-11-28T11:47:55;23.52;;;11.38;;
56291;SDS011;54008;53.606;9.462;2022-11-28T11:50:22;23.73;;;13.13;;
56291;SDS011;54008;53.606;9.462;2022-11-28T11:53:04;26.42;;;12.32;;
56291;SDS011;54008;53.606;9.462;2022-11-28T11:55:39;27.05;;;12.45;;
56291;SDS011;54008;53.606;9.462;2022-11-28T11:58:11;21.75;;;11.60;;
56291;SDS011;54008;53.606;9.462;2022-11-28T12:00:40;27.60;;;12.60;;
56291;SDS011;54008;53.606;9.462;2022-11-28T12:05:56;30.85;;;12.65;;
56291;SDS011;54008;53.606;9.462;2022-11-28T12:11:21;25.15;;;12.82;;
56291;SDS011;54008;53.606;9.462;2022-11-28T12:13:51;24.80;;;11.65;;
56291;SDS011;54008;53.606;9.462;2022-11-28T12:19:04;27.20;;;12.23;;
56291;SDS011;54008;53.606;9.462;2022-11-28T12:27:38;22.65;;;11.45;;
56291;SDS011;54008;53.606;9.462;2022-11-28T12:31:13;22.70;;;12.70;;
56291;SDS011;54008;53.606;9.462;2022-11-28T12:36:28;22.73;;;11.57;;
56291;SDS011;54008;53.606;9.462;2022-11-28T12:39:04;32.92;;;12.15;;
56291;SDS011;54008;53.606;9.462;2022-11-28T12:42:00;25.90;;;12.82;;
56291;SDS011;54008;53.606;9.462;2022-11-28T12:44:52;26.73;;;13.13;;
56291;SDS011;54008;53.606;9.462;2022-11-28T12:47:45;27.92;;;12.70;;
56291;SDS011;54008;53.606;9.462;2022-11-28T12:52:54;27.33;;;13.40;;
56291;SDS011;54008;53.606;9.462;2022-11-28T12:55:35;22.42;;;12.32;;
56291;SDS011;54008;53.606;9.462;2022-11-28T12:58:21;27.45;;;13.02;;
56291;SDS011;54008;53.606;9.462;2022-11-28T13:00:59;26.30;;;11.52;;
56291;SDS011;54008;53.606;9.462;2022-11-28T13:07:11;26.67;;;12.93;;
56291;SDS011;54008;53.606;9.462;2022-11-28T13:18:10;28.45;;;12.95;;
56291;SDS011;54008;53.606;9.462;2022-11-28T13:20:44;26.52;;;12.90;;
56291;SDS011;54008;53.606;9.462;2022-11-28T13:29:00;24.95;;;13.55;;
56291;SDS011;54008;53.606;9.462;2022-11-28T13:34:37;22.77;;;12.73;;
56291;SDS011;54008;53.606;9.462;2022-11-28T13:39:44;28.10;;;12.95;;
56291;SDS011;54008;53.606;9.462;2022-11-28T13:45:02;27.58;;;14.20;;
56291;SDS011;54008;53.606;9.462;2022-11-28T13:47:34;25.70;;;13.43;;
56291;SDS011;54008;53.606;9.462;2022-11-28T13:52:57;24.48;;;13.70;;
56291;SDS011;54008;53.606;9.462;2022-11-28T13:55:44;25.27;;;13.40;;
56291;SDS011;54008;53.606;9.462;2022-11-28T14:01:05;29.15;;;13.85;;
56291;SDS011;54008;53.606;9.462;2022-11-28T14:03:44;28.75;;;13.43;;
56291;SDS011;54008;53.606;9.462;2022-11-28T14:06:11;29.77;;;13.52;;
56291;SDS011;54008;53.606;9.462;2022-11-28T14:08:40;28.00;;;14.17;;
56291;SDS011;54008;53.606;9.462;2022-11-28T14:14:29;26.05;;;13.15;;
56291;SDS011;54008;53.606;9.462;2022-11-28T14:25:32;26.42;;;12.82;;
56291;SDS011;54008;53.606;9.462;2022-11-28T14:28:06;25.70;;;12.38;;
56291;SDS011;54008;53.606;9.462;2022-11-28T14:33:48;31.92;;;14.00;;
56291;SDS011;54008;53.606;9.462;2022-11-28T14:49:45;31.98;;;15.10;;
56291;SDS011;54008;53.606;9.462;2022-11-28T14:54:41;31.33;;;14.20;;
56291;SDS011;54008;53.606;9.462;2022-11-28T14:57:54;28.75;;;14.10;;
56291;SDS011;54008;53.606;9.462;2022-11-28T15:00:04;28.88;;;12.85;;
56291;SDS011;54008;53.606;9.462;2022-11-28T15:02:46;30.58;;;13.88;;
56291;SDS011;54008;53.606;9.462;2022-11-28T15:05:27;27.95;;;13.15;;
56291;SDS011;54008;53.606;9.462;2022-11-28T15:10:40;32.03;;;13.68;;
56291;SDS011;54008;53.606;9.462;2022-11-28T15:15:58;24.85;;;12.52;;
56291;SDS011;54008;53.606;9.462;2022-11-28T15:18:29;31.17;;;13.63;;
56291;SDS011;54008;53.606;9.462;2022-11-28T15:20:57;28.92;;;13.38;;
56291;SDS011;54008;53.606;9.462;2022-11-28T15:23:30;28.50;;;12.98;;
56291;SDS011;54008;53.606;9.462;2022-11-28T15:25:58;28.95;;;12.75;;
56291;SDS011;54008;53.606;9.462;2022-11-28T15:28:24;26.20;;;12.32;;
56291;SDS011;54008;53.606;9.462;2022-11-28T15:30:52;33.28;;;13.25;;
56291;SDS011;54008;53.606;9.462;2022-11-28T15:33:19;35.05;;;15.30;;
56291;SDS011;54008;53.606;9.462;2022-11-28T15:38:40;27.27;;;12.05;;
56291;SDS011;54008;53.606;9.462;2022-11-28T15:41:06;27.73;;;12.80;;
56291;SDS011;54008;53.606;9.462;2022-11-28T15:43:32;25.88;;;12.20;;
56291;SDS011;54008;53.606;9.462;2022-11-28T15:46:11;27.65;;;12.93;;
56291;SDS011;54008;53.606;9.462;2022-11-28T15:48:52;26.15;;;11.77;;
56291;SDS011;54008;53.606;9.462;2022-11-28T15:51:25;25.13;;;12.32;;
56291;SDS011;54008;53.606;9.462;2022-11-28T15:53:53;26.90;;;12.80;;
56291;SDS011;54008;53.606;9.462;2022-11-28T15:56:19;30.02;;;12.30;;
56291;SDS011;54008;53.606;9.462;2022-11-28T15:58:44;27.98;;;12.80;;
56291;SDS011;54008;53.606;9.462;2022-11-28T16:03:49;26.80;;;12.40;;
56291;SDS011;54008;53.606;9.462;2022-11-28T16:06:24;29.73;;;13.30;;
56291;SDS011;54008;53.606;9.462;2022-11-28T16:08:56;28.35;;;12.25;;
56291;SDS011;54008;53.606;9.462;2022-11-28T16:11:25;27.38;;;13.27;;
56291;SDS011;54008;53.606;9.462;2022-11-28T16:13:52;24.42;;;12.20;;
56291;SDS011;54008;53.606;9.462;2022-11-28T16:16:24;26.55;;;12.40;;
56291;SDS011;54008;53.606;9.462;2022-11-28T16:18:57;22.60;;;11.60;;
56291;SDS011;54008;53.606;9.462;2022-11-28T16:21:27;26.25;;;11.82;;
56291;SDS011;54008;53.606;9.462;2022-11-28T16:23:55;33.10;;;12.20;;
56291;SDS011;54008;53.606;9.462;2022-11-28T16:26:34;25.13;;;13.00;;
56291;SDS011;54008;53.606;9.462;2022-11-28T16:31:29;28.23;;;12.15;;
56291;SDS011;54008;53.606;9.462;2022-11-28T16:33:54;29.45;;;12.13;;
56291;SDS011;54008;53.606;9.462;2022-11-28T16:36:21;28.40;;;12.30;;
56291;SDS011;54008;53.606;9.462;2022-11-28T16:38:51;25.73;;;12.45;;
56291;SDS011;54008;53.606;9.462;2022-11-28T16:41:22;25.52;;;12.25;;
56291;SDS011;54008;53.606;9.462;2022-11-28T16:43:52;27.73;;;12.93;;
56291;SDS011;54008;53.606;9.462;2022-11-28T16:46:21;26.70;;;11.65;;
56291;SDS011;54008;53.606;9.462;2022-11-28T16:48:53;25.33;;;11.85;;
56291;SDS011;54008;53.606;9.462;2022-11-28T16:53:50;27.30;;;12.73;;
56291;SDS011;54008;53.606;9.462;2022-11-28T16:56:23;27.15;;;12.65;;
56291;SDS011;54008;53.606;9.462;2022-11-28T16:58:59;28.30;;;11.80;;
56291;SDS011;54008;53.606;9.462;2022-11-28T17:01:31;26.23;;;13.23;;
56291;SDS011;54008;53.606;9.462;2022-11-28T17:03:56;28.30;;;12.38;;
56291;SDS011;54008;53.606;9.462;2022-11-28T17:06:23;27.85;;;12.45;;
56291;SDS011;54008;53.606;9.462;2022-11-28T17:11:18;26.02;;;12.27;;
56291;SDS011;54008;53.606;9.462;2022-11-28T17:13:46;29.33;;;12.82;;
56291;SDS011;54008;53.606;9.462;2022-11-28T17:16:16;27.20;;;12.65;;
56291;SDS011;54008;53.606;9.462;2022-11-28T17:18:46;29.60;;;13.48;;
56291;SDS011;54008;53.606;9.462;2022-11-28T17:21:12;29.60;;;13.77;;
56291;SDS011;54008;53.606;9.462;2022-11-28T17:23:39;28.17;;;11.65;;
56291;SDS011;54008;53.606;9.462;2022-11-28T17:26:05;29.58;;;12.68;;
56291;SDS011;54008;53.606;9.462;2022-11-28T17:28:30;27.75;;;12.13;;
56291;SDS011;54008;53.606;9.462;2022-11-28T17:30:57;29.33;;;12.93;;
56291;SDS011;54008;53.606;9.462;2022-11-28T17:33:22;28.92;;;12.73;;
56291;SDS011;54008;53.606;9.462;2022-11-28T17:35:48;24.25;;;11.88;;
56291;SDS011;54008;53.606;9.462;2022-11-28T17:38:16;24.75;;;12.80;;
56291;SDS011;54008;53.606;9.462;2022-11-28T17:40:41;28.38;;;13.40;;
56291;SDS011;54008;53.606;9.462;2022-11-28T17:43:15;24.92;;;11.85;;
56291;SDS011;54008;53.606;9.462;2022-11-28T17:45:42;29.90;;;13.20;;
56291;SDS011;54008;53.606;9.462;2022-11-28T17:48:08;27.83;;;13.13;;
56291;SDS011;54008;53.606;9.462;2022-11-28T17:50:39;28.87;;;12.60;;
56291;SDS011;54008;53.606;9.462;2022-11-28T17:53:05;25.15;;;13.10;;
56291;SDS011;54008;53.606;9.462;2022-11-28T17:55:31;29.75;;;12.23;;
56291;SDS011;54008;53.606;9.462;2022-11-28T17:57:56;26.95;;;13.13;;